Aberdeen Gardens, Washington
Current Conditions -  °F | °C
As of 3:53 PM on Friday 31 Oct 2014 (Local Time) from KHQM Reporting Station
Clear Clear  
Wind Chill: 57°   Ceiling: Unl
Heat Index: 57°   Visibility: 7mi
Dew Point: 49°   Wind: 7mph
Humidity: 74%   Direction: 210°SSW
Pressure: 29.82"   Gusts: NA
Location:  47.1445°N, 123.771°W
Report Text: KHQM 312253Z AUTO 21006KT 7SM CLR 14/09 A2982 RMK AO2 SLP102 T01390094
Loading
Personal Weather Stations






























Interactive Weather Map
Tropical Storm Tracking
New forecast layout! Learn more

10-Day Weather Forecast

Advertisements
Track Severe Weather on mobile